createdAt,value
2024-02-19T00:00:56.909Z,12.16
2024-02-19T00:03:25.922Z,12.16
2024-02-19T00:05:52.650Z,12.18
2024-02-19T00:08:19.563Z,12.10
2024-02-19T00:10:46.393Z,12.04
2024-02-19T00:13:13.151Z,12.04
2024-02-19T00:15:39.820Z,12.26
2024-02-19T00:18:08.945Z,12.27
2024-02-19T00:20:38.212Z,12.27
2024-02-19T00:23:04.963Z,12.24
2024-02-19T00:25:34.566Z,12.26
2024-02-19T00:28:03.471Z,12.29
2024-02-19T00:30:30.112Z,12.30
2024-02-19T00:32:56.978Z,12.15
2024-02-19T00:35:23.719Z,12.26
2024-02-19T00:37:50.706Z,12.24
2024-02-19T00:40:17.807Z,12.20
2024-02-19T00:42:44.512Z,12.15
2024-02-19T00:45:12.452Z,11.74
2024-02-19T00:47:39.145Z,12.07
2024-02-19T00:50:06.652Z,11.64
2024-02-19T00:52:35.805Z,12.01
2024-02-19T00:55:02.520Z,11.97
2024-02-19T00:57:29.185Z,11.94
2024-02-19T00:59:55.787Z,11.86
2024-02-19T01:02:22.430Z,11.99
2024-02-19T01:04:50.541Z,12.02
2024-02-19T01:07:18.483Z,12.05
2024-02-19T01:09:51.495Z,11.79
2024-02-19T01:12:20.428Z,12.07
2024-02-19T01:14:47.087Z,12.01
2024-02-19T01:17:18.385Z,12.06
2024-02-19T01:19:46.124Z,12.05
2024-02-19T01:22:15.290Z,12.02
2024-02-19T01:24:42.283Z,11.98
2024-02-19T01:27:08.944Z,11.93
2024-02-19T01:29:38.583Z,11.88
2024-02-19T01:32:07.972Z,11.84
2024-02-19T01:34:36.959Z,11.84
2024-02-19T01:37:05.866Z,11.81
2024-02-19T01:39:33.787Z,11.82
2024-02-19T01:42:00.482Z,11.80
2024-02-19T01:44:27.118Z,11.73
2024-02-19T01:46:54.070Z,11.56
2024-02-19T01:49:21.046Z,11.80
2024-02-19T01:51:51.001Z,11.73
2024-02-19T01:54:18.242Z,11.79
2024-02-19T01:56:47.624Z,11.75
2024-02-19T01:59:17.408Z,11.67
2024-02-19T02:01:44.677Z,11.76
2024-02-19T02:04:12.937Z,11.72
2024-02-19T02:06:40.952Z,11.52
2024-02-19T02:09:08.496Z,11.58
2024-02-19T02:11:35.405Z,11.52
2024-02-19T02:14:02.087Z,11.41
2024-02-19T02:16:31.757Z,11.37
2024-02-19T02:19:05.010Z,11.31
2024-02-19T02:21:31.895Z,11.11
2024-02-19T02:23:58.586Z,11.15
2024-02-19T02:26:26.936Z,10.99
2024-02-19T02:28:53.609Z,11.04
2024-02-19T02:31:22.453Z,10.91
2024-02-19T02:33:51.838Z,10.94
2024-02-19T02:36:18.616Z,10.86
2024-02-19T02:38:47.742Z,10.65
2024-02-19T02:41:19.619Z,10.93
2024-02-19T02:43:46.753Z,10.89
2024-02-19T02:46:16.283Z,10.86
2024-02-19T02:48:43.651Z,10.77
2024-02-19T02:51:12.923Z,10.98
2024-02-19T02:53:39.597Z,10.98
2024-02-19T02:56:06.650Z,10.95
2024-02-19T02:58:38.123Z,10.85
2024-02-19T03:01:04.966Z,10.96
2024-02-19T03:03:34.366Z,10.93
2024-02-19T03:06:01.378Z,10.97
2024-02-19T03:08:28.059Z,10.99
2024-02-19T03:10:54.838Z,10.99
2024-02-19T03:13:23.927Z,10.87
2024-02-19T03:15:51.150Z,10.95
2024-02-19T03:18:20.133Z,10.75
2024-02-19T03:20:51.124Z,10.94
2024-02-19T03:23:20.121Z,10.91
2024-02-19T03:25:49.083Z,10.88
2024-02-19T03:28:15.878Z,10.84
2024-02-19T03:30:43.259Z,10.64
2024-02-19T03:33:12.284Z,10.37
2024-02-19T03:35:41.252Z,10.73
2024-02-19T03:38:08.239Z,10.68
2024-02-19T03:40:34.828Z,10.64
2024-02-19T03:43:01.534Z,10.53
2024-02-19T03:45:30.641Z,10.61
2024-02-19T03:47:57.858Z,10.46
2024-02-19T03:50:26.986Z,10.59
2024-02-19T03:52:53.614Z,10.63
2024-02-19T03:55:20.237Z,10.71
2024-02-19T03:57:46.926Z,10.71
2024-02-19T04:00:14.718Z,10.76
2024-02-19T04:02:43.888Z,10.69
2024-02-19T04:05:10.738Z,10.77
2024-02-19T04:07:37.551Z,10.77
2024-02-19T04:10:07.255Z,10.79
2024-02-19T04:12:33.918Z,10.82
2024-02-19T04:15:02.885Z,10.83
2024-02-19T04:17:34.562Z,10.33
2024-02-19T04:20:05.366Z,10.83
2024-02-19T04:22:34.735Z,10.86
2024-02-19T04:25:01.612Z,10.83
2024-02-19T04:27:31.255Z,10.84
2024-02-19T04:29:57.897Z,10.90
2024-02-19T04:32:27.319Z,10.94
2024-02-19T04:34:58.405Z,10.99
2024-02-19T04:37:25.799Z,10.98
2024-02-19T04:39:53.062Z,11.02
2024-02-19T04:42:23.014Z,11.14
2024-02-19T04:44:52.680Z,11.17
2024-02-19T04:47:21.470Z,11.21
2024-02-19T04:49:48.793Z,11.25
2024-02-19T04:52:17.897Z,11.27
2024-02-19T04:54:44.601Z,11.20
2024-02-19T04:57:11.352Z,11.31
2024-02-19T04:59:40.210Z,11.37
2024-02-19T05:02:06.906Z,11.28
2024-02-19T05:04:38.304Z,11.43
2024-02-19T05:07:05.175Z,11.47
2024-02-19T05:09:34.481Z,11.44
2024-02-19T05:12:01.111Z,11.51
2024-02-19T05:14:30.913Z,11.53
2024-02-19T05:16:57.538Z,11.40
2024-02-19T05:19:28.996Z,11.54
2024-02-19T05:21:56.043Z,11.50
2024-02-19T05:24:23.410Z,11.53
2024-02-19T05:26:50.330Z,11.53
2024-02-19T05:29:17.026Z,11.54
2024-02-19T05:31:43.900Z,11.56
2024-02-19T05:34:10.616Z,11.50
2024-02-19T05:36:37.369Z,11.47
2024-02-19T05:39:06.776Z,11.45
2024-02-19T05:41:33.451Z,11.59
2024-02-19T05:44:00.503Z,11.60
2024-02-19T05:46:27.279Z,11.46
2024-02-19T05:48:54.408Z,11.50
2024-02-19T05:51:21.552Z,11.50
2024-02-19T05:53:49.566Z,11.61
2024-02-19T05:56:19.382Z,11.48
2024-02-19T05:58:47.425Z,11.60
2024-02-19T06:01:14.516Z,11.53
2024-02-19T06:03:46.223Z,11.59
2024-02-19T06:06:12.930Z,11.60
2024-02-19T06:08:39.763Z,11.54
2024-02-19T06:11:06.509Z,11.51
2024-02-19T06:13:33.268Z,11.56
2024-02-19T06:15:59.962Z,11.53
2024-02-19T06:18:29.363Z,11.56
2024-02-19T06:20:56.072Z,11.56
2024-02-19T06:23:25.689Z,11.56
2024-02-19T06:25:52.293Z,11.56
2024-02-19T06:28:19.038Z,11.55
2024-02-19T06:30:50.597Z,11.53
2024-02-19T06:33:19.753Z,11.39
2024-02-19T06:35:47.181Z,11.42
2024-02-19T06:38:16.009Z,11.44
2024-02-19T06:40:44.975Z,11.40
2024-02-19T06:43:13.910Z,11.36
2024-02-19T06:45:40.601Z,11.30
2024-02-19T06:48:07.412Z,11.26
2024-02-19T06:50:34.199Z,11.22
2024-02-19T06:53:00.926Z,11.17
2024-02-19T06:55:30.025Z,10.89
2024-02-19T06:57:58.973Z,11.07
2024-02-19T07:00:25.621Z,11.04
2024-02-19T07:02:52.207Z,10.99
2024-02-19T07:05:19.664Z,10.95
2024-02-19T07:07:50.727Z,10.87
2024-02-19T07:10:19.070Z,10.85
2024-02-19T07:12:45.780Z,10.82
2024-02-19T07:15:13.400Z,10.74
2024-02-19T07:17:40.090Z,10.77
2024-02-19T07:20:08.106Z,10.72
2024-02-19T07:22:37.048Z,10.73
2024-02-19T07:25:13.497Z,10.60
2024-02-19T07:27:46.954Z,10.71
2024-02-19T07:30:16.147Z,10.64
2024-02-19T07:32:45.157Z,10.04
2024-02-19T07:35:14.591Z,10.71
2024-02-19T07:37:42.357Z,10.71
2024-02-19T07:40:10.744Z,10.66
2024-02-19T07:42:38.024Z,10.66
2024-02-19T07:45:08.256Z,10.66
2024-02-19T07:47:34.991Z,10.61
2024-02-19T07:50:01.908Z,10.73
2024-02-19T07:52:28.816Z,10.68
2024-02-19T07:54:58.006Z,10.75
2024-02-19T07:57:24.914Z,10.69
2024-02-19T07:59:51.600Z,10.75
2024-02-19T08:02:18.736Z,10.83
2024-02-19T08:04:45.849Z,10.86
2024-02-19T08:07:12.726Z,10.53
2024-02-19T08:09:41.882Z,10.97
2024-02-19T08:12:09.847Z,10.98
2024-02-19T08:14:39.358Z,11.05
2024-02-19T08:17:06.064Z,11.10
2024-02-19T08:19:32.812Z,11.19
2024-02-19T08:22:00.032Z,11.11
2024-02-19T08:24:26.795Z,11.28
2024-02-19T08:26:53.493Z,11.33
2024-02-19T08:29:20.744Z,11.26
2024-02-19T08:31:47.623Z,11.40
2024-02-19T08:34:18.173Z,11.47
2024-02-19T08:36:45.124Z,11.55
2024-02-19T08:39:11.928Z,11.51
2024-02-19T08:41:40.865Z,11.49
2024-02-19T08:44:07.551Z,11.67
2024-02-19T08:46:34.274Z,11.60
2024-02-19T08:49:01.226Z,11.71
2024-02-19T08:51:30.161Z,11.81
2024-02-19T08:53:59.950Z,11.86
2024-02-19T08:56:27.268Z,11.87
2024-02-19T08:58:53.950Z,11.98
2024-02-19T09:01:21.523Z,12.03
2024-02-19T09:03:49.267Z,12.02
2024-02-19T09:06:17.184Z,12.06
2024-02-19T09:08:44.058Z,12.00
2024-02-19T09:11:10.853Z,12.05
2024-02-19T09:13:37.610Z,12.17
2024-02-19T09:16:04.839Z,12.13
2024-02-19T09:18:31.806Z,12.34
2024-02-19T09:20:58.533Z,12.43
2024-02-19T09:23:26.821Z,12.47
2024-02-19T09:25:55.487Z,12.50
2024-02-19T09:28:22.290Z,12.18
2024-02-19T09:30:51.475Z,12.65
2024-02-19T09:33:18.482Z,12.64
2024-02-19T09:35:45.313Z,12.72
2024-02-19T09:38:15.380Z,12.70
2024-02-19T09:40:50.631Z,12.73
2024-02-19T09:43:22.220Z,12.86
2024-02-19T09:45:49.841Z,12.77
2024-02-19T09:48:21.785Z,12.94
2024-02-19T09:50:49.378Z,12.82
2024-02-19T09:53:23.934Z,12.98
2024-02-19T09:55:50.855Z,13.03
2024-02-19T09:58:17.606Z,13.18
2024-02-19T10:00:44.466Z,13.39
2024-02-19T10:03:13.007Z,13.50
2024-02-19T10:05:39.738Z,13.55
2024-02-19T10:08:13.982Z,13.59
2024-02-19T10:10:47.077Z,13.65
2024-02-19T10:13:14.427Z,13.78
2024-02-19T10:15:41.306Z,13.63
2024-02-19T10:18:22.011Z,13.85
2024-02-19T10:20:59.732Z,13.82
2024-02-19T10:23:26.698Z,13.86
2024-02-19T10:25:54.670Z,13.45
2024-02-19T10:28:26.212Z,13.87
2024-02-19T10:30:56.454Z,13.85
2024-02-19T10:33:23.527Z,13.87
2024-02-19T10:35:53.060Z,13.86
2024-02-19T10:38:19.975Z,13.86
2024-02-19T10:40:49.990Z,13.73
2024-02-19T10:43:19.173Z,13.84
2024-02-19T10:45:48.508Z,13.56
2024-02-19T10:48:15.641Z,13.89
2024-02-19T10:50:48.233Z,13.96
2024-02-19T10:53:14.993Z,14.04
2024-02-19T10:55:53.077Z,14.02
2024-02-19T10:58:29.312Z,14.22
2024-02-19T11:01:01.888Z,14.30
2024-02-19T11:03:31.880Z,14.37
2024-02-19T11:06:05.043Z,14.34
2024-02-19T11:08:36.274Z,14.40
2024-02-19T11:11:05.024Z,14.50
2024-02-19T11:13:37.107Z,14.53
2024-02-19T11:16:04.743Z,14.54
2024-02-19T11:18:33.658Z,14.68
2024-02-19T11:21:08.333Z,14.67
2024-02-19T11:23:35.369Z,14.56
2024-02-19T11:26:02.096Z,14.81
2024-02-19T11:28:34.394Z,14.83
2024-02-19T11:31:02.665Z,14.87
2024-02-19T11:33:30.691Z,14.90
2024-02-19T11:36:00.048Z,14.46
2024-02-19T11:38:31.358Z,14.85
2024-02-19T11:40:59.227Z,14.91
2024-02-19T11:43:29.696Z,14.87
2024-02-19T11:45:57.080Z,14.85
2024-02-19T11:48:24.006Z,14.86
2024-02-19T11:50:51.109Z,14.81
2024-02-19T11:53:17.994Z,14.97
2024-02-19T11:55:58.456Z,15.03
2024-02-19T11:58:28.851Z,15.08
2024-02-19T12:01:01.517Z,15.15
2024-02-19T12:03:30.684Z,15.23
2024-02-19T12:05:58.844Z,15.28
2024-02-19T12:08:31.964Z,15.27
2024-02-19T12:10:59.870Z,15.26
2024-02-19T12:13:29.304Z,15.28
2024-02-19T12:16:00.743Z,15.34
2024-02-19T12:18:30.520Z,15.27
2024-02-19T12:21:00.987Z,15.09
2024-02-19T12:23:31.076Z,15.25
2024-02-19T12:25:57.715Z,15.34
2024-02-19T12:28:26.859Z,15.36
2024-02-19T12:30:53.634Z,15.41
2024-02-19T12:33:22.776Z,15.49
2024-02-19T12:35:50.559Z,15.44
2024-02-19T12:38:17.446Z,15.60
2024-02-19T12:40:46.979Z,15.54
2024-02-19T12:43:14.911Z,15.61
2024-02-19T12:45:41.768Z,15.57
2024-02-19T12:48:11.107Z,15.60
2024-02-19T12:50:37.854Z,15.61
2024-02-19T12:53:04.995Z,15.69
2024-02-19T12:55:32.449Z,15.74
2024-02-19T12:57:59.223Z,15.72
2024-02-19T13:00:26.256Z,15.77
2024-02-19T13:02:53.264Z,15.77
2024-02-19T13:05:23.459Z,15.61
2024-02-19T13:07:52.755Z,15.68
2024-02-19T13:10:19.863Z,15.82
2024-02-19T13:12:46.779Z,15.68
2024-02-19T13:15:13.438Z,15.88
2024-02-19T13:17:45.666Z,15.99
2024-02-19T13:20:15.980Z,16.07
2024-02-19T13:22:45.356Z,16.13
2024-02-19T13:25:12.814Z,16.20
2024-02-19T13:27:39.857Z,16.14
2024-02-19T13:30:10.882Z,16.24
2024-02-19T13:32:38.579Z,16.27
2024-02-19T13:35:11.212Z,16.27
2024-02-19T13:37:41.399Z,16.27
2024-02-19T13:40:13.108Z,16.18
2024-02-19T13:42:44.945Z,16.22
2024-02-19T13:45:11.864Z,16.21
2024-02-19T13:47:40.587Z,16.16
2024-02-19T13:50:12.529Z,16.19
2024-02-19T13:52:39.645Z,16.16
2024-02-19T13:55:07.948Z,15.96
2024-02-19T13:57:34.860Z,16.00
2024-02-19T14:00:01.669Z,15.97
2024-02-19T14:02:28.441Z,15.91
2024-02-19T14:04:58.105Z,15.74
2024-02-19T14:07:26.222Z,15.65
2024-02-19T14:09:53.381Z,15.65
2024-02-19T14:12:20.151Z,15.69
2024-02-19T14:14:49.375Z,15.65
2024-02-19T14:17:18.744Z,15.55
2024-02-19T14:19:45.528Z,15.61
2024-02-19T14:22:12.382Z,15.61
2024-02-19T14:24:39.098Z,15.59
2024-02-19T14:27:08.221Z,15.68
2024-02-19T14:29:34.913Z,15.58
2024-02-19T14:32:01.749Z,15.60
2024-02-19T14:34:28.781Z,15.63
2024-02-19T14:36:55.555Z,15.59
2024-02-19T14:39:22.318Z,15.61
2024-02-19T14:41:53.579Z,15.63
2024-02-19T14:44:21.018Z,15.60
2024-02-19T14:46:54.518Z,15.56
2024-02-19T14:49:25.192Z,15.57
2024-02-19T14:51:52.237Z,15.50
2024-02-19T14:54:19.480Z,15.54
2024-02-19T14:56:46.303Z,15.39
2024-02-19T14:59:13.040Z,15.39
2024-02-19T15:01:39.907Z,15.24
2024-02-19T15:04:11.275Z,15.47
2024-02-19T15:06:40.627Z,15.42
2024-02-19T15:09:13.927Z,15.41
2024-02-19T15:11:43.829Z,15.40
2024-02-19T15:14:11.417Z,15.37
2024-02-19T15:16:40.624Z,15.35
2024-02-19T15:19:08.642Z,14.93
2024-02-19T15:21:39.080Z,15.24
2024-02-19T15:24:06.456Z,15.20
2024-02-19T15:26:33.252Z,15.15
2024-02-19T15:29:02.143Z,15.11
2024-02-19T15:31:28.882Z,15.06
2024-02-19T15:33:57.989Z,14.93
2024-02-19T15:36:24.851Z,14.92
2024-02-19T15:38:53.799Z,14.91
2024-02-19T15:41:22.991Z,14.90
2024-02-19T15:43:50.373Z,14.87
2024-02-19T15:46:20.432Z,14.83
2024-02-19T15:48:50.195Z,14.87
2024-02-19T15:51:21.571Z,14.83
2024-02-19T15:54:00.976Z,14.77
2024-02-19T15:56:28.275Z,14.64
2024-02-19T15:59:01.127Z,14.62
2024-02-19T16:01:30.399Z,14.41
2024-02-19T16:03:57.290Z,14.44
2024-02-19T16:06:29.568Z,14.08
2024-02-19T16:08:57.604Z,14.34
2024-02-19T16:11:27.458Z,14.24
2024-02-19T16:13:58.173Z,14.20
2024-02-19T16:16:28.240Z,14.08
2024-02-19T16:18:55.151Z,14.20
2024-02-19T16:21:21.968Z,14.14
2024-02-19T16:23:50.938Z,14.12
2024-02-19T16:26:17.774Z,14.14
2024-02-19T16:28:44.520Z,14.10
2024-02-19T16:31:12.483Z,14.04
2024-02-19T16:33:44.661Z,13.99
2024-02-19T16:36:12.128Z,13.93
2024-02-19T16:38:43.490Z,13.85
2024-02-19T16:41:10.641Z,13.81
2024-02-19T16:43:37.593Z,13.75
2024-02-19T16:46:07.751Z,13.68
2024-02-19T16:48:42.751Z,13.63
2024-02-19T16:51:13.069Z,13.56
2024-02-19T16:53:40.599Z,13.52
2024-02-19T16:56:08.073Z,13.47
2024-02-19T16:58:37.889Z,13.37
2024-02-19T17:01:06.850Z,13.36
2024-02-19T17:03:33.873Z,13.32
2024-02-19T17:06:00.817Z,13.27
2024-02-19T17:08:28.280Z,13.16
2024-02-19T17:10:58.982Z,13.10
2024-02-19T17:13:29.213Z,13.10
2024-02-19T17:15:56.449Z,12.98
2024-02-19T17:18:23.204Z,12.99
2024-02-19T17:20:52.936Z,12.53
2024-02-19T17:23:20.979Z,12.89
2024-02-19T17:25:52.172Z,12.63
2024-02-19T17:28:21.226Z,12.78
2024-02-19T17:30:48.082Z,12.73
2024-02-19T17:33:17.387Z,12.65
2024-02-19T17:35:45.891Z,12.32
2024-02-19T17:38:13.041Z,12.52
2024-02-19T17:40:45.674Z,12.52
2024-02-19T17:43:13.475Z,12.40
2024-02-19T17:45:43.140Z,12.46
2024-02-19T17:48:14.247Z,12.41
2024-02-19T17:50:42.183Z,12.33
2024-02-19T17:53:11.437Z,12.33
2024-02-19T17:55:38.294Z,12.27
2024-02-19T17:58:07.436Z,12.19
2024-02-19T18:00:34.153Z,12.20
2024-02-19T18:03:03.425Z,12.12
2024-02-19T18:05:30.963Z,12.02
2024-02-19T18:08:03.209Z,12.12
2024-02-19T18:10:33.290Z,12.11
2024-02-19T18:13:00.716Z,12.11
2024-02-19T18:15:27.581Z,12.10
2024-02-19T18:17:58.044Z,11.92
2024-02-19T18:20:25.295Z,12.04
2024-02-19T18:22:53.458Z,11.97
2024-02-19T18:25:23.676Z,12.12
2024-02-19T18:27:51.714Z,12.14
2024-02-19T18:30:18.929Z,12.15
2024-02-19T18:32:45.828Z,12.01
2024-02-19T18:35:17.285Z,12.17
2024-02-19T18:37:44.506Z,12.17
2024-02-19T18:40:11.481Z,12.10
2024-02-19T18:42:44.816Z,11.76
2024-02-19T18:45:13.815Z,12.15
2024-02-19T18:47:43.871Z,12.14
2024-02-19T18:50:11.630Z,11.94
2024-02-19T18:52:40.617Z,12.01
2024-02-19T18:55:11.701Z,12.12
2024-02-19T18:57:40.875Z,11.94
2024-02-19T19:00:10.429Z,12.14
2024-02-19T19:02:38.530Z,12.10
2024-02-19T19:05:10.572Z,12.15
2024-02-19T19:07:42.358Z,12.16
2024-02-19T19:10:09.508Z,12.16
2024-02-19T19:12:38.490Z,12.10
2024-02-19T19:15:09.006Z,12.12
2024-02-19T19:17:38.332Z,11.46
2024-02-19T19:20:11.532Z,12.08
2024-02-19T19:22:41.183Z,12.04
2024-02-19T19:25:08.383Z,11.81
2024-02-19T19:27:37.555Z,11.81
2024-02-19T19:30:06.073Z,11.98
2024-02-19T19:32:36.187Z,12.08
2024-02-19T19:35:03.597Z,12.00
2024-02-19T19:37:31.028Z,11.97
2024-02-19T19:39:57.865Z,11.88
2024-02-19T19:42:26.913Z,11.92
2024-02-19T19:44:55.458Z,11.72
2024-02-19T19:47:23.086Z,12.05
2024-02-19T19:49:52.793Z,12.03
2024-02-19T19:52:19.897Z,12.01
2024-02-19T19:54:47.027Z,11.85
2024-02-19T19:57:13.902Z,11.98
2024-02-19T19:59:49.777Z,11.96
2024-02-19T20:02:17.241Z,11.92
2024-02-19T20:04:44.560Z,11.94
2024-02-19T20:07:11.317Z,11.56
2024-02-19T20:09:38.205Z,11.92
2024-02-19T20:12:07.121Z,11.57
2024-02-19T20:14:33.827Z,11.52
2024-02-19T20:17:01.044Z,11.88
2024-02-19T20:19:31.428Z,11.60
2024-02-19T20:21:58.593Z,11.85
2024-02-19T20:24:28.915Z,11.77
2024-02-19T20:26:58.678Z,11.84
2024-02-19T20:29:25.709Z,11.76
2024-02-19T20:31:52.859Z,11.74
2024-02-19T20:34:22.280Z,11.73
2024-02-19T20:39:15.944Z,11.79
2024-02-19T20:41:44.072Z,11.79
2024-02-19T20:44:13.197Z,11.77
2024-02-19T20:46:40.757Z,11.75
2024-02-19T20:49:10.048Z,11.74
2024-02-19T20:51:37.073Z,11.61
2024-02-19T20:54:10.205Z,11.67
2024-02-19T20:56:43.246Z,11.58
2024-02-19T20:59:10.047Z,11.63
2024-02-19T21:01:36.823Z,11.49
2024-02-19T21:04:09.634Z,11.22
2024-02-19T21:06:38.675Z,11.40
2024-02-19T21:09:06.802Z,11.50
2024-02-19T21:11:36.767Z,11.48
2024-02-19T21:14:05.977Z,11.30
2024-02-19T21:16:32.721Z,11.34
2024-02-19T21:19:00.711Z,11.40
2024-02-19T21:21:34.452Z,11.30
2024-02-19T21:24:03.639Z,11.33
2024-02-19T21:26:31.955Z,11.24
2024-02-19T21:28:59.003Z,11.28
2024-02-19T21:31:28.339Z,11.26
2024-02-19T21:33:55.663Z,11.23
2024-02-19T21:36:22.561Z,10.32
2024-02-19T21:38:50.670Z,11.16
2024-02-19T21:41:18.210Z,11.10
2024-02-19T21:43:45.147Z,11.18
2024-02-19T21:46:14.225Z,11.17
2024-02-19T21:48:47.426Z,11.16
2024-02-19T21:51:14.356Z,11.16
2024-02-19T21:53:45.849Z,11.15
2024-02-19T21:56:14.967Z,11.12
2024-02-19T21:58:41.989Z,11.06
2024-02-19T22:01:08.722Z,11.11
2024-02-19T22:03:37.875Z,11.10
2024-02-19T22:06:08.196Z,11.00
2024-02-19T22:08:35.038Z,10.82
2024-02-19T22:11:01.867Z,11.02
2024-02-19T22:13:30.785Z,10.60
2024-02-19T22:15:57.493Z,10.98
2024-02-19T22:18:25.669Z,10.96
2024-02-19T22:20:55.454Z,10.82
2024-02-19T22:23:25.721Z,10.95
2024-02-19T22:25:54.929Z,10.77
2024-02-19T22:28:21.650Z,10.97
2024-02-19T22:30:48.576Z,10.89
2024-02-19T22:33:20.182Z,10.70
2024-02-19T22:35:47.588Z,10.75
2024-02-19T22:38:14.307Z,10.83
2024-02-19T22:40:43.262Z,10.79
2024-02-19T22:43:14.141Z,10.65
2024-02-19T22:45:41.433Z,10.86
2024-02-19T22:48:11.550Z,10.75
2024-02-19T22:50:39.221Z,10.90
2024-02-19T22:53:06.097Z,10.86
2024-02-19T22:55:33.050Z,10.68
2024-02-19T22:58:02.391Z,10.86
2024-02-19T23:00:40.384Z,10.90
2024-02-19T23:03:07.348Z,10.90
2024-02-19T23:05:34.229Z,10.90
2024-02-19T23:08:02.224Z,10.90
2024-02-19T23:10:29.591Z,10.84
2024-02-19T23:12:56.528Z,10.86
2024-02-19T23:15:23.470Z,10.83
2024-02-19T23:17:58.474Z,10.71
2024-02-19T23:20:25.406Z,9.93
2024-02-19T23:22:52.176Z,10.65
2024-02-19T23:25:19.230Z,10.79
2024-02-19T23:27:48.527Z,10.60
2024-02-19T23:30:15.411Z,10.70
2024-02-19T23:32:42.225Z,10.73
2024-02-19T23:35:11.198Z,10.71
2024-02-19T23:37:38.335Z,10.49
2024-02-19T23:40:16.330Z,10.45
2024-02-19T23:42:43.994Z,10.58
2024-02-19T23:45:13.712Z,10.54
2024-02-19T23:47:43.286Z,9.95
2024-02-19T23:50:10.849Z,10.42
2024-02-19T23:52:41.640Z,10.36
2024-02-19T23:55:14.778Z,10.27
2024-02-19T23:57:44.075Z,10.28
